createdAt,value
2023-04-08T00:00:54.682Z,268.70
2023-04-08T00:01:54.774Z,211.50
2023-04-08T00:02:54.751Z,264.00
2023-04-08T00:03:54.788Z,196.60
2023-04-08T00:04:54.673Z,205.70
2023-04-08T00:05:54.616Z,289.70
2023-04-08T00:06:54.608Z,202.90
2023-04-08T00:07:54.644Z,237.80
2023-04-08T00:08:54.591Z,168.20
2023-04-08T00:09:54.589Z,218.80
2023-04-08T00:10:54.580Z,200.10
2023-04-08T00:11:54.562Z,237.10
2023-04-08T00:12:54.585Z,236.30
2023-04-08T00:13:54.535Z,245.30
2023-04-08T00:14:54.522Z,350.10
2023-04-08T00:15:54.502Z,214.50
2023-04-08T00:16:54.507Z,200.50
2023-04-08T00:17:54.656Z,183.10
2023-04-08T00:18:54.478Z,211.30
2023-04-08T00:19:54.453Z,142.80
2023-04-08T00:20:54.459Z,184.30
2023-04-08T00:21:54.426Z,230.10
2023-04-08T00:22:54.465Z,209.50
2023-04-08T00:23:54.395Z,206.30
2023-04-08T00:24:54.423Z,176.70
2023-04-08T00:25:54.391Z,201.90
2023-04-08T00:26:54.379Z,280.50
2023-04-08T00:27:54.405Z,245.00
2023-04-08T00:28:54.360Z,245.20
2023-04-08T00:29:54.346Z,169.10
2023-04-08T00:30:54.403Z,285.50
2023-04-08T00:31:54.332Z,146.00
2023-04-08T00:32:54.363Z,132.70
2023-04-08T00:33:54.297Z,193.40
2023-04-08T00:34:54.294Z,223.00
2023-04-08T00:35:54.321Z,125.90
2023-04-08T00:36:54.268Z,141.10
2023-04-08T00:37:54.303Z,136.70
2023-04-08T00:38:54.248Z,145.10
2023-04-08T00:39:54.246Z,154.00
2023-04-08T00:40:54.233Z,222.50
2023-04-08T00:41:54.220Z,190.00
2023-04-08T00:42:54.238Z,147.40
2023-04-08T00:43:54.182Z,152.00
2023-04-08T00:44:54.191Z,146.40
2023-04-08T00:45:54.182Z,221.00
2023-04-08T00:46:54.167Z,155.70
2023-04-08T00:47:54.236Z,215.80
2023-04-08T00:48:54.142Z,221.20
2023-04-08T00:49:54.123Z,242.10
2023-04-08T00:50:54.111Z,234.10
2023-04-08T00:51:54.096Z,230.30
2023-04-08T00:52:54.144Z,255.30
2023-04-08T00:53:54.058Z,255.20
2023-04-08T00:54:54.087Z,214.30
2023-04-08T00:55:54.037Z,233.00
2023-04-08T00:56:54.053Z,228.60
2023-04-08T00:57:54.059Z,222.90
2023-04-08T00:58:54.013Z,231.00
2023-04-08T00:59:54.008Z,171.70
2023-04-08T01:00:53.997Z,259.90
2023-04-08T01:01:54.080Z,239.10
2023-04-08T01:02:54.117Z,259.20
2023-04-08T01:03:54.036Z,225.00
2023-04-08T01:04:53.946Z,233.70
2023-04-08T01:05:53.925Z,311.40
2023-04-08T01:06:53.934Z,235.70
2023-04-08T01:07:54.034Z,232.20
2023-04-08T01:08:53.905Z,232.70
2023-04-08T01:09:53.906Z,241.00
2023-04-08T01:10:53.907Z,258.30
2023-04-08T01:11:53.875Z,150.80
2023-04-08T01:12:53.898Z,256.00
2023-04-08T01:13:53.861Z,162.40
2023-04-08T01:14:53.841Z,185.00
2023-04-08T01:15:53.861Z,249.90
2023-04-08T01:16:53.818Z,257.80
2023-04-08T01:17:53.856Z,234.40
2023-04-08T01:18:53.792Z,246.30
2023-04-08T01:19:53.775Z,229.80
2023-04-08T01:20:53.754Z,238.20
2023-04-08T01:21:53.736Z,186.10
2023-04-08T01:22:53.788Z,189.10
2023-04-08T01:23:53.715Z,255.10
2023-04-08T01:24:53.718Z,212.30
2023-04-08T01:25:53.760Z,167.90
2023-04-08T01:26:53.691Z,179.70
2023-04-08T01:27:53.725Z,248.00
2023-04-08T01:28:53.676Z,236.40
2023-04-08T01:29:53.643Z,256.10
2023-04-08T01:30:53.683Z,334.60
2023-04-08T01:31:53.632Z,218.30
2023-04-08T01:32:53.741Z,237.50
2023-04-08T01:33:53.643Z,298.60
2023-04-08T01:34:53.603Z,265.90
2023-04-08T01:35:53.657Z,221.40
2023-04-08T01:36:53.596Z,183.30
2023-04-08T01:37:53.608Z,188.40
2023-04-08T01:38:53.556Z,250.50
2023-04-08T01:39:53.536Z,248.60
2023-04-08T01:40:53.536Z,294.50
2023-04-08T01:41:53.515Z,230.00
2023-04-08T01:42:53.553Z,211.90
2023-04-08T01:43:53.501Z,213.60
2023-04-08T01:44:53.485Z,213.50
2023-04-08T01:45:53.474Z,273.50
2023-04-08T01:46:53.496Z,270.00
2023-04-08T01:47:53.595Z,288.80
2023-04-08T01:48:53.466Z,259.70
2023-04-08T01:49:53.436Z,260.70
2023-04-08T01:50:53.416Z,187.20
2023-04-08T01:51:53.397Z,256.00
2023-04-08T01:52:53.435Z,194.40
2023-04-08T01:53:53.391Z,220.70
2023-04-08T01:54:53.422Z,242.70
2023-04-08T01:55:53.364Z,267.20
2023-04-08T01:56:53.395Z,275.10
2023-04-08T01:57:53.386Z,270.20
2023-04-08T01:58:53.331Z,270.20
2023-04-08T01:59:53.412Z,263.00
2023-04-08T02:00:53.310Z,196.70
2023-04-08T02:01:53.347Z,281.70
2023-04-08T02:02:53.511Z,321.90
2023-04-08T02:03:53.374Z,216.40
2023-04-08T02:04:53.275Z,282.20
2023-04-08T02:05:53.253Z,271.20
2023-04-08T02:06:53.244Z,226.90
2023-04-08T02:07:53.272Z,193.40
2023-04-08T02:08:53.212Z,179.10
2023-04-08T02:09:53.217Z,197.60
2023-04-08T02:10:53.198Z,221.60
2023-04-08T02:11:53.189Z,267.50
2023-04-08T02:12:53.247Z,259.60
2023-04-08T02:13:53.163Z,250.00
2023-04-08T02:14:53.166Z,207.60
2023-04-08T02:15:53.200Z,211.70
2023-04-08T02:16:53.130Z,192.20
2023-04-08T02:17:53.184Z,182.80
2023-04-08T02:18:53.151Z,284.90
2023-04-08T02:19:53.146Z,264.40
2023-04-08T02:20:53.071Z,270.30
2023-04-08T02:21:53.073Z,264.50
2023-04-08T02:22:53.066Z,188.10
2023-04-08T02:23:53.102Z,222.40
2023-04-08T02:24:53.048Z,187.40
2023-04-08T02:25:53.040Z,200.30
2023-04-08T02:26:53.016Z,217.40
2023-04-08T02:27:53.019Z,230.90
2023-04-08T02:28:53.168Z,202.10
2023-04-08T02:29:52.976Z,204.20
2023-04-08T02:30:52.992Z,203.10
2023-04-08T02:31:53.052Z,267.20
2023-04-08T02:32:52.994Z,286.40
2023-04-08T02:33:52.987Z,274.00
2023-04-08T02:34:52.909Z,297.60
2023-04-08T02:35:52.938Z,239.60
2023-04-08T02:36:52.911Z,242.30
2023-04-08T02:37:52.888Z,214.80
2023-04-08T02:38:52.990Z,215.00
2023-04-08T02:39:52.882Z,220.00
2023-04-08T02:40:52.888Z,291.80
2023-04-08T02:41:52.846Z,287.30
2023-04-08T02:42:52.836Z,266.90
2023-04-08T02:43:52.868Z,291.10
2023-04-08T02:44:52.810Z,284.60
2023-04-08T02:45:52.892Z,254.00
2023-04-08T02:46:52.819Z,267.10
2023-04-08T02:47:52.801Z,249.20
2023-04-08T02:48:52.814Z,297.00
2023-04-08T02:49:52.821Z,349.90
2023-04-08T02:50:52.745Z,311.20
2023-04-08T02:51:52.802Z,227.80
2023-04-08T02:52:52.764Z,251.50
2023-04-08T02:53:52.805Z,260.90
2023-04-08T02:54:52.701Z,233.30
2023-04-08T02:55:52.682Z,266.60
2023-04-08T02:56:52.691Z,312.20
2023-04-08T02:57:52.680Z,272.20
2023-04-08T02:58:52.731Z,290.70
2023-04-08T02:59:52.671Z,268.70
2023-04-08T03:00:52.690Z,268.10
2023-04-08T03:01:52.815Z,298.60
2023-04-08T03:02:52.815Z,301.40
2023-04-08T03:03:52.804Z,307.80
2023-04-08T03:04:52.585Z,317.90
2023-04-08T03:05:52.580Z,230.00
2023-04-08T03:06:52.594Z,232.50
2023-04-08T03:07:52.568Z,242.60
2023-04-08T03:08:52.784Z,302.80
2023-04-08T03:09:52.528Z,248.30
2023-04-08T03:10:52.615Z,243.70
2023-04-08T03:11:52.599Z,274.50
2023-04-08T03:12:52.506Z,232.90
2023-04-08T03:13:52.565Z,242.50
2023-04-08T03:14:52.481Z,245.00
2023-04-08T03:15:52.490Z,222.80
2023-04-08T03:16:52.535Z,292.30
2023-04-08T03:17:52.472Z,311.40
2023-04-08T03:18:52.727Z,310.40
2023-04-08T03:19:52.437Z,304.40
2023-04-08T03:20:52.413Z,245.10
2023-04-08T03:21:52.436Z,237.60
2023-04-08T03:22:52.429Z,237.50
2023-04-08T03:23:52.469Z,249.90
2023-04-08T03:24:52.354Z,235.80
2023-04-08T03:25:52.339Z,310.90
2023-04-08T03:26:52.327Z,271.60
2023-04-08T03:27:52.324Z,287.80
2023-04-08T03:28:52.458Z,248.10
2023-04-08T03:29:52.308Z,237.40
2023-04-08T03:30:52.274Z,269.90
2023-04-08T03:31:52.293Z,292.40
2023-04-08T03:32:52.376Z,307.20
2023-04-08T03:33:52.298Z,302.00
2023-04-08T03:34:52.218Z,310.20
2023-04-08T03:35:52.258Z,308.60
2023-04-08T03:36:52.206Z,297.00
2023-04-08T03:37:52.208Z,270.00
2023-04-08T03:38:52.434Z,258.60
2023-04-08T03:39:52.190Z,254.10
2023-04-08T03:40:52.162Z,293.90
2023-04-08T03:41:52.157Z,317.40
2023-04-08T03:42:52.158Z,313.00
2023-04-08T03:43:52.203Z,315.60
2023-04-08T03:44:52.118Z,310.90
2023-04-08T03:45:52.173Z,306.80
2023-04-08T03:46:52.086Z,307.70
2023-04-08T03:47:52.161Z,303.30
2023-04-08T03:48:52.307Z,257.00
2023-04-08T03:49:52.051Z,309.60
2023-04-08T03:50:52.047Z,312.00
2023-04-08T03:51:52.152Z,314.80
2023-04-08T03:52:52.039Z,301.80
2023-04-08T03:53:52.050Z,307.40
2023-04-08T03:54:52.002Z,312.30
2023-04-08T03:55:51.995Z,315.90
2023-04-08T03:56:51.976Z,278.60
2023-04-08T03:57:51.968Z,287.40
2023-04-08T03:58:52.287Z,304.90
2023-04-08T03:59:51.932Z,297.90
2023-04-08T04:00:51.923Z,318.30
2023-04-08T04:01:51.947Z,309.90
2023-04-08T04:02:51.924Z,306.10
2023-04-08T04:03:52.113Z,305.20
2023-04-08T04:04:51.957Z,309.90
2023-04-08T04:05:51.870Z,313.90
2023-04-08T04:06:51.862Z,306.50
2023-04-08T04:07:51.851Z,320.70
2023-04-08T04:08:52.021Z,274.70
2023-04-08T04:09:51.822Z,262.00
2023-04-08T04:10:51.804Z,253.10
2023-04-08T04:11:51.801Z,250.60
2023-04-08T04:12:51.767Z,254.60
2023-04-08T04:13:51.852Z,253.40
2023-04-08T04:14:51.757Z,243.30
2023-04-08T04:15:51.767Z,244.10
2023-04-08T04:16:51.728Z,258.60
2023-04-08T04:17:51.744Z,256.80
2023-04-08T04:18:51.963Z,297.20
2023-04-08T04:19:51.699Z,301.10
2023-04-08T04:20:51.702Z,276.20
2023-04-08T04:21:51.685Z,313.50
2023-04-08T04:22:51.667Z,306.90
2023-04-08T04:23:51.705Z,324.20
2023-04-08T04:24:51.645Z,311.80
2023-04-08T04:25:51.640Z,319.30
2023-04-08T04:26:51.615Z,314.30
2023-04-08T04:27:51.624Z,291.60
2023-04-08T04:28:51.901Z,313.40
2023-04-08T04:29:51.620Z,253.70
2023-04-08T04:30:51.661Z,323.30
2023-04-08T04:31:51.577Z,301.00
2023-04-08T04:32:51.627Z,310.20
2023-04-08T04:33:51.597Z,320.70
2023-04-08T04:34:51.553Z,298.20
2023-04-08T04:35:51.531Z,244.70
2023-04-08T04:36:51.530Z,273.30
2023-04-08T04:37:51.501Z,315.30
2023-04-08T04:38:51.881Z,287.20
2023-04-08T04:39:51.496Z,225.70
2023-04-08T04:40:51.454Z,235.30
2023-04-08T04:41:51.451Z,229.60
2023-04-08T04:42:51.430Z,233.20
2023-04-08T04:43:51.472Z,295.50
2023-04-08T04:44:51.406Z,290.90
2023-04-08T04:45:51.404Z,319.40
2023-04-08T04:46:51.542Z,309.80
2023-04-08T04:47:51.435Z,252.30
2023-04-08T04:48:51.651Z,292.80
2023-04-08T04:49:51.467Z,209.40
2023-04-08T04:50:51.370Z,240.90
2023-04-08T04:51:51.352Z,194.40
2023-04-08T04:52:51.397Z,277.60
2023-04-08T04:53:51.385Z,282.20
2023-04-08T04:54:51.302Z,228.80
2023-04-08T04:55:51.301Z,295.90
2023-04-08T04:56:51.304Z,237.60
2023-04-08T04:57:51.305Z,301.20
2023-04-08T04:58:51.442Z,202.80
2023-04-08T04:59:51.276Z,226.00
2023-04-08T05:00:51.232Z,279.30
2023-04-08T05:01:51.287Z,181.90
2023-04-08T05:02:51.354Z,189.00
2023-04-08T05:03:51.263Z,221.20
2023-04-08T05:04:51.203Z,236.80
2023-04-08T05:05:51.184Z,262.60
2023-04-08T05:06:51.311Z,180.90
2023-04-08T05:07:51.170Z,198.20
2023-04-08T05:08:51.360Z,257.20
2023-04-08T05:09:51.134Z,296.10
2023-04-08T05:10:51.125Z,310.90
2023-04-08T05:11:51.113Z,301.70
2023-04-08T05:12:51.102Z,333.70
2023-04-08T05:13:51.136Z,308.60
2023-04-08T05:14:51.079Z,238.70
2023-04-08T05:15:51.119Z,309.00
2023-04-08T05:16:51.067Z,310.50
2023-04-08T05:17:51.084Z,293.30
2023-04-08T05:18:51.329Z,230.60
2023-04-08T05:19:51.028Z,214.50
2023-04-08T05:20:51.020Z,279.00
2023-04-08T05:21:51.166Z,197.30
2023-04-08T05:22:51.018Z,222.10
2023-04-08T05:23:51.023Z,354.10
2023-04-08T05:24:51.036Z,310.10
2023-04-08T05:25:50.972Z,298.10
2023-04-08T05:26:50.955Z,293.00
2023-04-08T05:27:50.955Z,285.00
2023-04-08T05:28:51.036Z,274.50
2023-04-08T05:29:50.977Z,291.60
2023-04-08T05:30:50.911Z,341.10
2023-04-08T05:31:50.964Z,217.80
2023-04-08T05:32:50.959Z,337.20
2023-04-08T05:33:50.892Z,379.90
2023-04-08T05:34:50.978Z,317.90
2023-04-08T05:35:50.918Z,396.50
2023-04-08T05:36:50.848Z,315.90
2023-04-08T05:37:50.838Z,359.60
2023-04-08T05:38:50.984Z,287.30
2023-04-08T05:39:50.849Z,308.00
2023-04-08T05:40:50.818Z,387.70
2023-04-08T05:41:50.782Z,326.60
2023-04-08T05:42:50.768Z,376.90
2023-04-08T05:43:50.746Z,408.50
2023-04-08T05:44:50.813Z,490.70
2023-04-08T05:45:50.749Z,528.80
2023-04-08T05:46:50.785Z,576.90
2023-04-08T05:47:50.797Z,479.40
2023-04-08T05:48:51.073Z,999.90
2023-04-08T05:49:51.315Z,569.90
2023-04-08T05:50:50.697Z,999.90
2023-04-08T05:51:50.675Z,252.40
2023-04-08T05:52:50.657Z,418.10
2023-04-08T05:53:50.656Z,160.10
2023-04-08T05:54:50.677Z,382.20
2023-04-08T05:55:50.663Z,135.60
2023-04-08T05:56:50.614Z,999.90
2023-04-08T05:57:50.648Z,999.90
2023-04-08T05:58:50.912Z,999.90
2023-04-08T05:59:50.636Z,208.10
2023-04-08T06:00:50.562Z,443.20
2023-04-08T06:01:50.674Z,999.90
2023-04-08T06:02:50.778Z,317.40
2023-04-08T06:03:50.741Z,999.90
2023-04-08T06:04:50.687Z,248.40
2023-04-08T06:05:50.488Z,999.90
2023-04-08T06:06:50.486Z,367.60
2023-04-08T06:07:50.675Z,999.90
2023-04-08T06:08:50.558Z,999.90
2023-04-08T06:09:50.556Z,999.90
2023-04-08T06:10:50.434Z,999.90
2023-04-08T06:11:50.430Z,99.50
2023-04-08T06:12:50.406Z,999.90
2023-04-08T06:13:50.415Z,999.90
2023-04-08T06:14:50.425Z,999.90
2023-04-08T06:15:50.372Z,999.90
2023-04-08T06:16:50.430Z,999.90
2023-04-08T06:17:50.422Z,999.90
2023-04-08T06:18:50.569Z,159.40
2023-04-08T06:19:50.379Z,999.90
2023-04-08T06:20:50.507Z,999.90
2023-04-08T06:21:50.302Z,999.90
2023-04-08T06:22:50.285Z,999.90
2023-04-08T06:23:50.304Z,999.90
2023-04-08T06:24:50.326Z,999.90
2023-04-08T06:25:50.283Z,999.90
2023-04-08T06:26:50.249Z,999.90
2023-04-08T06:27:50.255Z,999.90
2023-04-08T06:28:50.407Z,999.90
2023-04-08T06:29:50.255Z,999.90
2023-04-08T06:30:50.202Z,999.90
2023-04-08T06:31:50.256Z,999.90
2023-04-08T06:32:50.220Z,999.90
2023-04-08T06:33:50.427Z,999.90
2023-04-08T06:34:50.211Z,999.90
2023-04-08T06:35:50.172Z,999.90
2023-04-08T06:36:50.133Z,999.90
2023-04-08T06:37:50.134Z,261.60
2023-04-08T06:38:50.269Z,999.90
2023-04-08T06:39:50.118Z,163.10
2023-04-08T06:40:50.085Z,999.90
2023-04-08T06:41:50.082Z,225.10
2023-04-08T06:42:50.054Z,999.90
2023-04-08T06:43:50.061Z,999.90
2023-04-08T06:44:50.099Z,999.90
2023-04-08T06:45:50.063Z,999.90
2023-04-08T06:46:50.021Z,999.90
2023-04-08T06:47:50.099Z,147.00
2023-04-08T06:48:50.110Z,999.90
2023-04-08T06:49:50.035Z,999.90
2023-04-08T06:50:49.951Z,999.90
2023-04-08T06:51:49.969Z,999.90
2023-04-08T06:52:49.960Z,999.90
2023-04-08T06:53:49.937Z,999.90
2023-04-08T06:54:49.975Z,999.90
2023-04-08T06:55:49.916Z,999.90
2023-04-08T06:56:49.900Z,999.90
2023-04-08T06:57:49.888Z,999.90
2023-04-08T06:58:50.061Z,999.90
2023-04-08T06:59:49.910Z,999.90
2023-04-08T07:00:49.891Z,999.90
2023-04-08T07:01:49.963Z,999.90
2023-04-08T07:02:49.910Z,999.90
2023-04-08T07:03:49.896Z,999.90
2023-04-08T07:04:49.860Z,880.30
2023-04-08T07:05:49.801Z,608.50
2023-04-08T07:06:49.791Z,657.60
2023-04-08T07:07:49.765Z,746.70
2023-04-08T07:08:49.976Z,999.90
2023-04-08T07:09:49.803Z,999.90
2023-04-08T07:10:49.737Z,548.60
2023-04-08T07:11:49.762Z,999.90
2023-04-08T07:12:49.729Z,865.60
2023-04-08T07:13:49.887Z,656.90
2023-04-08T07:14:49.749Z,323.90
2023-04-08T07:15:49.688Z,534.90
2023-04-08T07:16:49.721Z,359.50
2023-04-08T07:17:49.694Z,61.20
2023-04-08T07:18:49.850Z,84.40
2023-04-08T07:19:49.687Z,63.50
2023-04-08T07:20:49.640Z,38.30
2023-04-08T07:21:49.625Z,23.10
2023-04-08T07:22:49.599Z,24.50
2023-04-08T07:23:49.610Z,34.00
2023-04-08T07:24:49.681Z,24.70
2023-04-08T07:25:49.583Z,26.60
2023-04-08T07:26:49.566Z,63.00
2023-04-08T07:27:49.556Z,22.60
2023-04-08T07:28:49.845Z,23.20
2023-04-08T07:29:49.569Z,37.20
2023-04-08T07:30:49.562Z,54.50
2023-04-08T07:31:49.531Z,46.20
2023-04-08T07:32:49.491Z,65.20
2023-04-08T07:33:49.479Z,30.00
2023-04-08T07:34:49.515Z,28.40
2023-04-08T07:35:49.542Z,21.70
2023-04-08T07:36:49.450Z,25.90
2023-04-08T07:37:49.440Z,28.80
2023-04-08T07:38:49.701Z,32.70
2023-04-08T07:39:49.460Z,29.00
2023-04-08T07:40:49.491Z,30.10
2023-04-08T07:41:49.364Z,20.50
2023-04-08T07:42:49.386Z,25.30
2023-04-08T07:43:49.368Z,27.40
2023-04-08T07:44:49.392Z,28.50
2023-04-08T07:45:49.386Z,30.50
2023-04-08T07:46:49.351Z,29.80
2023-04-08T07:47:49.404Z,43.50
2023-04-08T07:48:49.614Z,34.30
2023-04-08T07:49:49.333Z,39.20
2023-04-08T07:51:08.196Z,48.00
2023-04-08T07:51:50.275Z,51.60
2023-04-08T07:52:49.262Z,48.20
2023-04-08T07:53:49.243Z,49.80
2023-04-08T07:54:49.256Z,50.60
2023-04-08T07:55:49.254Z,54.80
2023-04-08T07:56:49.214Z,65.00
2023-04-08T07:57:49.201Z,52.80
2023-04-08T07:58:51.206Z,42.40
2023-04-08T07:59:49.170Z,41.30
2023-04-08T08:00:49.219Z,33.90
2023-04-08T08:01:49.256Z,39.20
2023-04-08T08:02:49.268Z,53.50
2023-04-08T08:03:49.422Z,54.10
2023-04-08T08:04:49.128Z,53.90
2023-04-08T08:05:49.160Z,44.90
2023-04-08T08:06:49.084Z,47.70
2023-04-08T08:07:49.092Z,48.80
2023-04-08T08:08:49.082Z,52.30
2023-04-08T08:09:49.063Z,52.70
2023-04-08T08:10:49.094Z,56.80
2023-04-08T08:11:49.031Z,71.00
2023-04-08T08:12:49.025Z,56.70
2023-04-08T08:13:49.232Z,35.50
2023-04-08T08:14:49.014Z,31.70
2023-04-08T08:15:49.085Z,49.50
2023-04-08T08:16:48.979Z,19.00
2023-04-08T08:17:49.050Z,23.00
2023-04-08T08:18:49.000Z,62.30
2023-04-08T08:19:48.953Z,20.80
2023-04-08T08:20:48.994Z,16.90
2023-04-08T08:21:48.963Z,14.20
2023-04-08T08:22:57.116Z,12.90
2023-04-08T08:23:50.139Z,13.70
2023-04-08T08:24:48.896Z,15.60
2023-04-08T08:25:48.944Z,15.70
2023-04-08T08:26:48.875Z,14.50
2023-04-08T08:27:48.853Z,12.90
2023-04-08T08:28:48.866Z,12.10
2023-04-08T08:29:48.863Z,11.20
2023-04-08T08:30:48.887Z,11.30
2023-04-08T08:31:48.872Z,12.10
2023-04-08T08:32:48.807Z,13.10
2023-04-08T08:33:49.047Z,12.50
2023-04-08T08:34:48.772Z,14.60
2023-04-08T08:35:48.866Z,15.50
2023-04-08T08:36:48.763Z,13.70
2023-04-08T08:37:48.743Z,15.40
2023-04-08T08:38:48.843Z,16.90
2023-04-08T08:39:48.783Z,16.30
2023-04-08T08:40:48.771Z,11.90
2023-04-08T08:41:48.699Z,11.40
2023-04-08T08:42:48.706Z,11.30
2023-04-08T08:43:48.981Z,12.90
2023-04-08T08:44:48.687Z,13.00
2023-04-08T08:45:48.705Z,14.60
2023-04-08T08:46:48.676Z,15.70
2023-04-08T08:47:50.962Z,16.90
2023-04-08T08:48:48.649Z,18.40
2023-04-08T08:49:48.619Z,15.30
2023-04-08T08:50:48.668Z,14.30
2023-04-08T08:51:48.592Z,13.80
2023-04-08T08:52:48.633Z,14.70
2023-04-08T08:53:48.555Z,73.80
2023-04-08T08:54:48.563Z,72.40
2023-04-08T08:56:09.360Z,46.30
2023-04-08T08:56:49.534Z,154.10
2023-04-08T08:57:48.538Z,204.40
2023-04-08T08:58:48.522Z,186.70
2023-04-08T08:59:48.568Z,186.40
2023-04-08T09:00:48.537Z,190.30
2023-04-08T09:01:48.534Z,212.10
2023-04-08T09:02:48.652Z,228.50
2023-04-08T09:03:48.609Z,248.90
2023-04-08T09:04:48.572Z,230.40
2023-04-08T09:05:48.489Z,240.70
2023-04-08T09:06:48.410Z,219.80
2023-04-08T09:07:48.502Z,48.80
2023-04-08T09:08:48.406Z,81.80
2023-04-08T09:09:48.388Z,47.10
2023-04-08T09:10:48.431Z,31.60
2023-04-08T09:11:48.410Z,31.60
2023-04-08T09:12:48.403Z,28.10
2023-04-08T09:13:48.549Z,21.80
2023-04-08T09:14:48.340Z,14.80
2023-04-08T09:15:48.380Z,18.30
2023-04-08T09:16:48.618Z,15.70
2023-04-08T09:17:48.317Z,82.10
2023-04-08T09:18:49.397Z,11.80
2023-04-08T09:19:48.258Z,36.40
2023-04-08T09:20:48.325Z,53.90
2023-04-08T09:21:48.260Z,16.80
2023-04-08T09:22:48.319Z,18.20
2023-04-08T09:23:48.472Z,16.80
2023-04-08T09:24:48.254Z,21.50
2023-04-08T09:25:48.297Z,30.10
2023-04-08T09:26:48.188Z,26.70
2023-04-08T09:27:48.238Z,50.10
2023-04-08T09:28:48.189Z,47.80
2023-04-08T09:29:48.125Z,48.20
2023-04-08T09:30:48.181Z,34.10
2023-04-08T09:31:48.140Z,68.70
2023-04-08T09:32:48.186Z,88.60
2023-04-08T09:33:48.241Z,112.70
2023-04-08T09:34:48.128Z,123.50
2023-04-08T09:35:48.215Z,144.60
2023-04-08T09:36:48.070Z,93.90
2023-04-08T09:37:48.085Z,97.80
2023-04-08T09:38:48.086Z,122.60
2023-04-08T09:39:48.168Z,109.00
2023-04-08T09:40:48.061Z,206.40
2023-04-08T09:41:48.016Z,203.20
2023-04-08T09:42:48.007Z,188.90
2023-04-08T09:43:48.260Z,239.60
2023-04-08T09:44:47.997Z,147.80
2023-04-08T09:45:48.102Z,210.40
2023-04-08T09:46:47.978Z,105.40
2023-04-08T09:47:48.052Z,142.90
2023-04-08T09:48:48.001Z,150.40
2023-04-08T09:49:47.929Z,238.10
2023-04-08T09:50:47.980Z,120.90
2023-04-08T09:51:47.910Z,127.00
2023-04-08T09:52:47.909Z,225.60
2023-04-08T09:53:48.015Z,117.50
2023-04-08T09:54:47.880Z,248.10
2023-04-08T09:55:47.991Z,149.20
2023-04-08T09:56:47.866Z,133.40
2023-04-08T09:57:47.807Z,65.00
2023-04-08T09:58:47.802Z,196.20
2023-04-08T09:59:47.822Z,68.00
2023-04-08T10:00:47.899Z,257.50
2023-04-08T10:01:47.854Z,118.30
2023-04-08T10:02:47.952Z,145.70
2023-04-08T10:03:47.873Z,124.50
2023-04-08T10:04:47.794Z,95.70
2023-04-08T10:05:47.794Z,138.40
2023-04-08T10:06:47.772Z,50.40
2023-04-08T10:07:47.708Z,146.50
2023-04-08T10:08:47.725Z,201.60
2023-04-08T10:09:47.718Z,119.70
2023-04-08T10:10:48.029Z,135.80
2023-04-08T10:11:47.672Z,91.50
2023-04-08T10:12:47.669Z,78.50
2023-04-08T10:13:47.713Z,131.20
2023-04-08T10:14:47.671Z,168.90
2023-04-08T10:15:47.709Z,102.00
2023-04-08T10:16:47.649Z,187.80
2023-04-08T10:17:47.646Z,69.10
2023-04-08T10:18:47.592Z,122.90
2023-04-08T10:19:47.567Z,79.90
2023-04-08T10:20:47.626Z,78.60
2023-04-08T10:21:47.568Z,108.10
2023-04-08T10:22:47.555Z,76.50
2023-04-08T10:23:47.638Z,166.40
2023-04-08T10:24:47.528Z,138.20
2023-04-08T10:25:47.635Z,120.50
2023-04-08T10:26:47.518Z,130.90
2023-04-08T10:27:47.528Z,80.70
2023-04-08T10:28:47.493Z,56.50
2023-04-08T10:29:47.475Z,141.10
2023-04-08T10:30:47.553Z,149.00
2023-04-08T10:31:47.516Z,70.70
2023-04-08T10:32:47.463Z,111.70
2023-04-08T10:33:47.461Z,85.50
2023-04-08T10:34:47.407Z,126.10
2023-04-08T10:35:47.516Z,83.40
2023-04-08T10:36:47.399Z,76.80
2023-04-08T10:37:47.375Z,43.40
2023-04-08T10:38:47.386Z,77.40
2023-04-08T10:39:47.349Z,105.10
2023-04-08T10:40:47.411Z,59.50
2023-04-08T10:41:47.373Z,55.90
2023-04-08T10:42:47.314Z,83.70
2023-04-08T10:43:47.322Z,45.70
2023-04-08T10:44:47.265Z,89.60
2023-04-08T10:45:48.674Z,80.50
2023-04-08T10:46:47.261Z,55.10
2023-04-08T10:47:47.281Z,82.40
2023-04-08T10:48:47.240Z,96.10
2023-04-08T10:49:47.236Z,88.50
2023-04-08T10:50:47.224Z,56.20
2023-04-08T10:51:47.258Z,44.70
2023-04-08T10:52:47.185Z,79.00
2023-04-08T10:53:47.197Z,65.20
2023-04-08T10:54:47.173Z,70.50
2023-04-08T10:55:47.160Z,61.90
2023-04-08T10:56:47.205Z,47.30
2023-04-08T10:57:47.158Z,54.10
2023-04-08T10:58:47.140Z,49.60
2023-04-08T10:59:47.097Z,43.00
2023-04-08T11:00:47.121Z,44.80
2023-04-08T11:01:47.265Z,38.80
2023-04-08T11:02:47.179Z,41.60
2023-04-08T11:03:47.364Z,24.30
2023-04-08T11:04:47.084Z,26.60
2023-04-08T11:05:47.056Z,35.30
2023-04-08T11:06:47.088Z,62.10
2023-04-08T11:07:47.086Z,44.90
2023-04-08T11:08:47.031Z,69.90
2023-04-08T11:09:47.001Z,51.20
2023-04-08T11:10:47.026Z,45.00
2023-04-08T11:11:47.027Z,24.80
2023-04-08T11:12:46.978Z,44.60
2023-04-08T11:13:53.484Z,22.40
2023-04-08T11:14:49.470Z,27.20
2023-04-08T11:15:46.976Z,28.30
2023-04-08T11:16:46.972Z,19.80
2023-04-08T11:17:46.949Z,34.40
2023-04-08T11:18:46.884Z,41.40
2023-04-08T11:19:46.985Z,34.60
2023-04-08T11:20:46.872Z,30.60
2023-04-08T11:21:46.900Z,20.70
2023-04-08T11:22:46.852Z,22.80
2023-04-08T11:23:46.862Z,37.70
2023-04-08T11:24:46.839Z,41.50
2023-04-08T11:25:46.838Z,19.10
2023-04-08T11:26:46.859Z,37.80
2023-04-08T11:27:46.813Z,38.40
2023-04-08T11:28:46.766Z,42.70
2023-04-08T11:29:46.780Z,43.00
2023-04-08T11:30:46.788Z,45.10
2023-04-08T11:31:46.824Z,46.60
2023-04-08T11:32:46.789Z,49.90
2023-04-08T11:33:46.729Z,24.70
2023-04-08T11:34:46.708Z,60.30
2023-04-08T11:35:46.739Z,71.60
2023-04-08T11:36:46.752Z,46.80
2023-04-08T11:37:46.687Z,105.20
2023-04-08T11:38:46.662Z,104.10
2023-04-08T11:39:46.640Z,104.30
2023-04-08T11:40:46.649Z,57.80
2023-04-08T11:41:46.669Z,120.40
2023-04-08T11:42:47.171Z,49.40
2023-04-08T11:43:46.587Z,76.80
2023-04-08T11:44:46.599Z,52.30
2023-04-08T11:45:46.566Z,147.10
2023-04-08T11:46:46.624Z,146.60
2023-04-08T11:47:46.619Z,151.00
2023-04-08T11:48:46.568Z,63.10
2023-04-08T11:49:46.577Z,146.70
2023-04-08T11:50:46.557Z,66.40
2023-04-08T11:51:46.563Z,58.80
2023-04-08T11:52:46.524Z,92.50
2023-04-08T11:53:46.547Z,83.20
2023-04-08T11:54:46.494Z,136.90
2023-04-08T11:55:46.480Z,192.00
2023-04-08T11:56:46.504Z,251.20
2023-04-08T11:57:46.463Z,244.90
2023-04-08T11:58:46.467Z,133.90
2023-04-08T11:59:46.425Z,115.60
2023-04-08T12:00:46.414Z,99.90
2023-04-08T12:01:46.470Z,235.60
2023-04-08T12:02:46.482Z,118.10
2023-04-08T12:03:46.538Z,198.90
2023-04-08T12:04:46.430Z,82.40
2023-04-08T12:05:46.368Z,85.30
2023-04-08T12:06:46.368Z,152.10
2023-04-08T12:07:46.328Z,139.60
2023-04-08T12:08:46.318Z,111.00
2023-04-08T12:09:46.319Z,40.40
2023-04-08T12:10:46.300Z,79.50
2023-04-08T12:11:46.326Z,39.50
2023-04-08T12:12:46.251Z,83.10
2023-04-08T12:13:46.270Z,56.30
2023-04-08T12:14:46.277Z,136.30
2023-04-08T12:15:46.256Z,148.80
2023-04-08T12:16:46.314Z,79.10
2023-04-08T12:17:46.260Z,165.00
2023-04-08T12:18:46.203Z,155.20
2023-04-08T12:19:46.211Z,127.80
2023-04-08T12:20:46.180Z,179.40
2023-04-08T12:21:46.237Z,175.20
2023-04-08T12:22:46.160Z,87.90
2023-04-08T12:23:46.168Z,123.90
2023-04-08T12:24:46.148Z,133.00
2023-04-08T12:25:46.131Z,76.50
2023-04-08T12:26:46.203Z,170.40
2023-04-08T12:27:46.136Z,217.30
2023-04-08T12:28:46.142Z,132.10
2023-04-08T12:29:46.174Z,96.90
2023-04-08T12:30:46.076Z,197.50
2023-04-08T12:31:46.196Z,227.60
2023-04-08T12:32:46.251Z,119.10
2023-04-08T12:33:46.069Z,190.00
2023-04-08T12:34:46.033Z,202.40
2023-04-08T12:35:46.013Z,94.40